Time;durP1;ratioP1;P1;durP2;ratioP2;P2;SDS_P1;SDS_P2;PMS_P1;PMS_P2;Temp;Humidity;BMP_temperature;BMP_pressure;BME280_temperature;BME280_humidity;BME280_pressure;Samples;Min_cycle;Max_cycle;Signal;HPM_P1;HPM_P2
2023/07/03 00:00:53;;;;;;;6.80;5.60;;;26.60;81.10;;;;;;10944031;32;20042;-73
2023/07/03 00:06:55;;;;;;;6.90;4.95;;;26.60;81.40;;;;;;10940811;32;20058;-73
2023/07/03 00:12:57;;;;;;;6.10;4.12;;;26.50;81.40;;;;;;10944896;32;20400;-72
2023/07/03 00:18:59;;;;;;;5.45;3.87;;;26.50;81.30;;;;;;10941802;32;20044;-73
2023/07/03 00:25:01;;;;;;;6.28;4.45;;;26.50;81.30;;;;;;10944262;32;20020;-73
2023/07/03 00:31:03;;;;;;;6.47;4.50;;;26.40;81.20;;;;;;10943286;32;20049;-73
2023/07/03 00:37:06;;;;;;;5.40;4.00;;;26.30;81.30;;;;;;10940012;32;20329;-72
2023/07/03 00:43:08;;;;;;;6.50;5.00;;;26.30;81.40;;;;;;10943933;32;20038;-72
2023/07/03 00:49:11;;;;;;;6.10;4.68;;;26.30;81.30;;;;;;10943581;32;20019;-72
2023/07/03 00:55:14;;;;;;;5.68;4.00;;;26.30;81.10;;;;;;10943424;32;20039;-72
2023/07/03 01:01:34;;;;;;;8.07;4.87;;;26.30;81.20;;;;;;10943165;32;20050;-72
2023/07/03 01:07:38;;;;;;;7.18;4.90;;;26.30;81.40;;;;;;10942916;32;20015;-72
2023/07/03 01:13:42;;;;;;;6.70;4.72;;;26.10;81.70;;;;;;10942830;32;20023;-72
2023/07/03 01:19:47;;;;;;;6.60;4.87;;;25.90;82.10;;;;;;10938250;32;20019;-72
2023/07/03 01:25:51;;;;;;;7.53;4.68;;;25.90;82.20;;;;;;10942287;32;20050;-72
2023/07/03 01:31:55;;;;;;;5.87;4.32;;;26.00;82.20;;;;;;10797215;32;20028;-72
2023/07/03 01:38:01;;;;;;;6.40;4.82;;;25.90;82.30;;;;;;10787194;33;20020;-72
2023/07/03 01:44:03;;;;;;;6.87;5.18;;;25.90;82.20;;;;;;10838105;32;20036;-71
2023/07/03 01:50:09;;;;;;;7.35;4.47;;;25.90;82.10;;;;;;10787758;33;20509;-74
2023/07/03 01:56:16;;;;;;;6.75;4.25;;;25.80;82.40;;;;;;10837782;32;20028;-75
2023/07/03 02:02:28;;;;;;;5.45;4.18;;;25.90;82.40;;;;;;10787475;33;20024;-74
2023/07/03 02:08:31;;;;;;;6.85;4.07;;;25.80;82.70;;;;;;10787268;33;20411;-74
2023/07/03 02:14:34;;;;;;;7.28;4.53;;;25.90;83.00;;;;;;10787058;33;20021;-74
2023/07/03 02:20:38;;;;;;;7.60;4.70;;;25.90;82.70;;;;;;10837209;32;20044;-74
2023/07/03 02:26:41;;;;;;;8.35;5.20;;;25.90;82.60;;;;;;10847852;32;20046;-74
2023/07/03 02:32:55;;;;;;;7.70;4.30;;;25.90;83.00;;;;;;10936026;32;20050;-74
2023/07/03 02:38:59;;;;;;;6.95;4.95;;;25.80;83.20;;;;;;10940797;32;20049;-74
2023/07/03 02:45:03;;;;;;;8.88;5.10;;;25.80;83.30;;;;;;10941665;32;20020;-75
2023/07/03 02:51:05;;;;;;;8.85;6.47;;;25.80;83.20;;;;;;10947771;32;20054;-75
2023/07/03 02:57:07;;;;;;;8.30;6.15;;;25.70;83.30;;;;;;10946641;32;20393;-74
2023/07/03 03:03:09;;;;;;;10.30;8.18;;;25.70;83.20;;;;;;10947340;32;20022;-75
2023/07/03 03:09:11;;;;;;;11.73;10.00;;;25.70;83.40;;;;;;10947228;32;20045;-75
2023/07/03 03:15:17;;;;;;;10.65;8.15;;;25.60;83.50;;;;;;10943955;32;20172;-74
2023/07/03 03:21:19;;;;;;;12.27;9.68;;;25.40;83.70;;;;;;10945817;32;20045;-76
2023/07/03 03:27:21;;;;;;;9.85;7.97;;;25.30;83.90;;;;;;10917849;32;20053;-76
2023/07/03 03:33:24;;;;;;;10.88;9.68;;;25.30;84.00;;;;;;10842162;32;20035;-75
2023/07/03 03:39:26;;;;;;;13.40;11.02;;;25.30;83.90;;;;;;10791375;33;20029;-78
2023/07/03 03:45:28;;;;;;;10.68;8.38;;;25.30;83.90;;;;;;10791113;33;20016;-75
2023/07/03 03:51:30;;;;;;;14.35;12.35;;;25.20;84.10;;;;;;10790951;33;20024;-75
2023/07/03 03:57:33;;;;;;;14.02;12.48;;;25.20;84.20;;;;;;10790366;33;20024;-75
2023/07/03 04:03:36;;;;;;;14.27;11.82;;;25.00;84.40;;;;;;10839599;32;20033;-75
2023/07/03 04:09:38;;;;;;;11.30;10.10;;;24.90;84.30;;;;;;10790483;33;20038;-77
2023/07/03 04:15:51;;;;;;;9.95;7.22;;;25.00;84.50;;;;;;10840009;32;20063;-74
2023/07/03 04:21:53;;;;;;;10.32;7.75;;;25.10;84.40;;;;;;10840616;32;20145;-76
2023/07/03 04:27:55;;;;;;;10.93;8.63;;;25.20;84.40;;;;;;10840227;32;20029;-74
2023/07/03 04:33:57;;;;;;;9.20;5.82;;;25.20;84.40;;;;;;10789826;33;20020;-78
2023/07/03 04:40:00;;;;;;;9.85;6.07;;;25.10;84.30;;;;;;10789563;33;20032;-74
2023/07/03 04:46:03;;;;;;;11.02;6.55;;;25.20;84.40;;;;;;10789477;33;20339;-75
2023/07/03 04:52:06;;;;;;;10.57;5.97;;;25.10;84.70;;;;;;10789205;33;20086;-74
2023/07/03 04:58:09;;;;;;;12.70;9.73;;;25.10;84.70;;;;;;10788991;33;20059;-75
2023/07/03 05:04:12;;;;;;;8.75;6.25;;;25.00;84.80;;;;;;10788978;33;20024;-75
2023/07/03 05:10:48;;;;;;;8.73;7.30;;;24.90;84.80;;;;;;10788051;33;20020;-75
2023/07/03 05:16:50;;;;;;;9.27;7.82;;;24.90;84.60;;;;;;10834905;32;20032;-77
2023/07/03 05:22:53;;;;;;;8.35;6.15;;;24.80;84.50;;;;;;10788529;33;20016;-76
2023/07/03 05:28:55;;;;;;;8.68;6.32;;;24.60;84.50;;;;;;10788292;33;20056;-74
2023/07/03 05:34:57;;;;;;;9.05;5.90;;;24.80;84.80;;;;;;10787999;33;20021;-77
2023/07/03 05:41:00;;;;;;;8.88;5.57;;;24.80;84.60;;;;;;10838090;32;20078;-77
2023/07/03 05:47:02;;;;;;;12.27;8.43;;;24.80;84.60;;;;;;10788021;33;20020;-76
2023/07/03 05:53:05;;;;;;;8.82;6.53;;;24.60;83.70;;;;;;10787803;33;20028;-78
2023/07/03 05:59:08;;;;;;;9.75;6.78;;;24.60;84.10;;;;;;10837453;32;20071;-77
2023/07/03 06:05:12;;;;;;;9.52;7.22;;;24.60;83.80;;;;;;10787198;33;20029;-74
2023/07/03 06:11:14;;;;;;;10.10;7.55;;;24.60;83.80;;;;;;10834742;32;20058;-78
2023/07/03 06:17:16;;;;;;;10.23;5.53;;;24.50;83.70;;;;;;10837361;32;20338;-75
2023/07/03 06:23:18;;;;;;;7.93;4.72;;;24.50;83.90;;;;;;10841748;32;20067;-77
2023/07/03 06:29:20;;;;;;;7.25;5.30;;;24.60;83.60;;;;;;10793512;33;20047;-77
2023/07/03 06:35:23;;;;;;;8.35;5.05;;;24.60;83.60;;;;;;10793252;33;20012;-76
2023/07/03 06:41:30;;;;;;;6.45;4.35;;;24.50;83.50;;;;;;10793025;33;20056;-77
2023/07/03 06:47:32;;;;;;;7.47;4.53;;;24.60;83.70;;;;;;10792914;33;20021;-76
2023/07/03 06:53:35;;;;;;;7.30;4.10;;;24.50;83.70;;;;;;10792782;33;20035;-75
2023/07/03 06:59:37;;;;;;;5.82;3.60;;;24.40;83.90;;;;;;10793192;33;20016;-74
2023/07/03 07:05:39;;;;;;;7.22;3.90;;;24.30;84.20;;;;;;10792519;33;20029;-74
2023/07/03 07:11:41;;;;;;;5.68;3.92;;;24.40;84.30;;;;;;10792307;33;20185;-75
2023/07/03 07:17:43;;;;;;;5.97;3.28;;;24.40;84.20;;;;;;10790955;33;20433;-74
2023/07/03 07:23:51;;;;;;;4.47;2.78;;;24.40;84.30;;;;;;10791864;33;20079;-74
2023/07/03 07:29:53;;;;;;;4.33;2.70;;;24.40;84.30;;;;;;10376884;27;12756141;-75
2023/07/03 07:35:55;;;;;;;4.10;2.80;;;24.50;84.40;;;;;;10639021;33;20423;-74
2023/07/03 07:41:57;;;;;;;6.57;4.25;;;24.50;84.60;;;;;;10642906;33;20042;-75
2023/07/03 07:48:00;;;;;;;6.85;4.72;;;24.60;84.90;;;;;;10643183;33;20025;-75
2023/07/03 07:54:03;;;;;;;7.62;5.10;;;24.70;84.80;;;;;;10676283;33;20017;-77
2023/07/03 08:00:06;;;;;;;8.68;4.72;;;24.70;84.10;;;;;;10741147;33;20433;-74
2023/07/03 08:06:14;;;;;;;9.10;4.57;;;24.50;83.90;;;;;;10754134;33;20025;-75
2023/07/03 08:12:16;;;;;;;10.32;6.10;;;24.30;84.10;;;;;;10741019;33;20048;-75
2023/07/03 08:18:19;;;;;;;7.70;4.62;;;24.20;84.20;;;;;;10753635;33;20025;-74
2023/07/03 08:24:21;;;;;;;7.20;4.78;;;24.30;84.40;;;;;;10753631;33;20395;-75
2023/07/03 08:30:23;;;;;;;8.77;4.80;;;24.50;84.80;;;;;;10753459;33;20029;-75
2023/07/03 08:36:26;;;;;;;8.40;5.78;;;24.50;84.70;;;;;;10716897;33;20059;-74
2023/07/03 08:42:47;;;;;;;10.05;4.93;;;24.60;84.60;;;;;;10752226;33;20020;-74
2023/07/03 08:48:53;;;;;;;9.02;3.70;;;24.50;84.10;;;;;;10739649;33;20037;-76
2023/07/03 08:54:56;;;;;;;5.75;4.10;;;24.80;84.50;;;;;;10749620;33;20060;-73
2023/07/03 09:01:08;;;;;;;8.73;5.00;;;25.30;84.10;;;;;;10738868;33;20433;-76
2023/07/03 09:07:35;;;;;;;8.80;5.57;;;25.60;84.20;;;;;;10752136;33;20024;-75
2023/07/03 09:13:46;;;;;;;7.00;4.37;;;26.00;83.80;;;;;;10752255;33;20021;-73
2023/07/03 09:19:51;;;;;;;8.32;5.72;;;26.30;83.80;;;;;;10751504;33;20040;-75
2023/07/03 09:26:01;;;;;;;7.75;5.18;;;26.40;83.00;;;;;;10738638;33;20028;-74
2023/07/03 09:32:04;;;;;;;8.32;4.75;;;26.30;83.60;;;;;;10751855;33;20437;-75
2023/07/03 09:38:14;;;;;;;4.72;3.35;;;26.30;83.80;;;;;;10751582;33;20048;-74
2023/07/03 09:44:17;;;;;;;4.90;3.45;;;26.50;83.70;;;;;;10751637;33;20049;-74
2023/07/03 09:50:30;;;;;;;6.18;3.70;;;26.80;83.70;;;;;;10751417;33;20387;-76
2023/07/03 09:56:32;;;;;;;6.20;3.78;;;26.70;83.50;;;;;;10746796;33;20017;-76
2023/07/03 10:02:34;;;;;;;7.28;4.18;;;26.80;83.70;;;;;;10750693;33;20358;-74
2023/07/03 10:08:41;;;;;;;5.43;3.87;;;26.90;83.80;;;;;;10750911;33;20071;-75
2023/07/03 10:14:52;;;;;;;6.87;4.25;;;27.00;84.60;;;;;;10750703;33;20304;-74
2023/07/03 10:20:55;;;;;;;7.03;4.05;;;27.20;84.20;;;;;;10737666;33;20381;-73
2023/07/03 10:27:00;;;;;;;5.60;3.92;;;27.50;83.00;;;;;;10750192;33;20044;-73
2023/07/03 10:33:10;;;;;;;5.00;3.65;;;27.60;83.20;;;;;;10750414;33;20017;-75
2023/07/03 10:39:21;;;;;;;6.18;3.10;;;27.70;82.80;;;;;;10747658;33;20028;-76
2023/07/03 10:45:25;;;;;;;6.97;4.00;;;27.50;82.70;;;;;;10748955;33;20031;-74
2023/07/03 10:52:14;;;;;;;10.45;4.35;;;27.40;83.00;;;;;;10736920;33;20028;-74
2023/07/03 10:58:37;;;;;;;5.68;3.58;;;27.60;82.70;;;;;;10813393;32;20085;-74
2023/07/03 11:04:46;;;;;;;4.30;2.40;;;27.80;82.00;;;;;;10824585;32;20032;-75
2023/07/03 11:11:06;;;;;;;7.68;4.30;;;27.80;82.20;;;;;;10829382;32;20042;-74
2023/07/03 11:17:18;;;;;;;5.32;3.83;;;27.80;81.40;;;;;;10830760;32;20420;-72
2023/07/03 11:23:52;;;;;;;7.97;4.50;;;27.90;81.30;;;;;;10827029;32;20386;-75
2023/07/03 11:29:55;;;;;;;5.40;3.55;;;28.40;80.00;;;;;;10700824;33;20046;-74
2023/07/03 11:35:59;;;;;;;5.20;2.95;;;28.80;79.60;;;;;;10572012;33;20027;-75
2023/07/03 11:42:01;;;;;;;4.85;3.45;;;29.30;78.60;;;;;;10572958;33;20414;-74
2023/07/03 11:48:17;;;;;;;4.82;3.15;;;29.40;78.50;;;;;;10560150;33;20022;-72
2023/07/03 11:54:26;;;;;;;6.90;3.78;;;29.50;77.40;;;;;;10571476;33;20018;-74
2023/07/03 12:00:30;;;;;;;5.30;3.53;;;29.80;77.90;;;;;;10569179;33;20031;-75
2023/07/03 12:06:41;;;;;;;6.18;3.53;;;29.90;77.70;;;;;;10705127;33;20025;-76
2023/07/03 12:12:49;;;;;;;5.82;3.90;;;30.20;76.60;;;;;;10752296;33;20020;-76
2023/07/03 12:19:07;;;;;;;4.35;3.30;;;30.10;76.60;;;;;;10753185;33;20029;-75
2023/07/03 12:25:17;;;;;;;5.62;3.45;;;29.90;76.60;;;;;;10751940;33;20327;-74
2023/07/03 12:31:22;;;;;;;6.90;3.67;;;30.00;76.80;;;;;;10753423;33;20047;-75
2023/07/03 12:37:24;;;;;;;5.65;4.00;;;29.80;76.90;;;;;;10751073;33;20067;-74
2023/07/03 12:43:27;;;;;;;6.07;3.60;;;29.30;78.10;;;;;;10753110;33;20133;-73
2023/07/03 12:49:29;;;;;;;7.12;4.35;;;29.30;78.00;;;;;;10752972;33;20017;-73
2023/07/03 12:55:34;;;;;;;8.18;3.90;;;29.30;78.70;;;;;;10749326;33;20445;-73
2023/07/03 13:01:38;;;;;;;5.37;3.80;;;29.00;78.80;;;;;;10739319;33;20095;-74
2023/07/03 13:07:44;;;;;;;5.72;3.92;;;28.90;80.00;;;;;;10752575;33;20347;-73
2023/07/03 13:13:46;;;;;;;7.07;4.12;;;28.80;79.90;;;;;;10752243;33;20053;-73
2023/07/03 13:19:48;;;;;;;5.97;3.65;;;28.60;80.50;;;;;;10752053;33;20051;-73
2023/07/03 13:25:56;;;;;;;5.95;3.67;;;28.40;80.20;;;;;;10750763;33;20021;-73
2023/07/03 13:32:18;;;;;;;5.32;3.20;;;28.30;80.00;;;;;;10751107;33;20390;-73
2023/07/03 13:38:23;;;;;;;4.60;2.72;;;28.30;80.10;;;;;;10734486;33;20036;-73
2023/07/03 13:44:25;;;;;;;5.37;3.70;;;28.30;80.70;;;;;;10748640;33;20025;-73
2023/07/03 13:50:28;;;;;;;5.30;3.35;;;28.30;80.70;;;;;;10751470;33;20434;-73
2023/07/03 13:56:30;;;;;;;6.07;4.07;;;28.30;80.30;;;;;;10748056;33;20437;-74
2023/07/03 14:02:32;;;;;;;5.68;3.65;;;28.30;80.40;;;;;;10738147;33;20020;-74
2023/07/03 14:08:35;;;;;;;6.80;4.78;;;28.40;80.60;;;;;;10734049;33;20343;-74
2023/07/03 14:14:37;;;;;;;5.82;3.65;;;28.70;80.10;;;;;;10726954;33;20053;-74
2023/07/03 14:20:39;;;;;;;6.72;4.22;;;29.00;79.20;;;;;;10725967;33;20033;-74
2023/07/03 14:26:41;;;;;;;6.32;4.10;;;29.30;78.50;;;;;;10743573;33;20043;-72
2023/07/03 14:32:43;;;;;;;7.45;4.32;;;29.40;77.90;;;;;;10739874;32;20072;-73
2023/07/03 14:38:46;;;;;;;7.05;5.00;;;29.50;79.10;;;;;;10724805;32;20055;-73
2023/07/03 14:44:48;;;;;;;6.40;4.72;;;29.40;77.30;;;;;;10731263;32;20394;-74
2023/07/03 14:50:51;;;;;;;7.12;4.62;;;29.40;77.10;;;;;;10729738;33;20055;-74
2023/07/03 14:56:53;;;;;;;7.93;5.22;;;29.40;76.50;;;;;;10720602;33;20037;-74
2023/07/03 15:02:55;;;;;;;6.78;3.47;;;29.40;76.20;;;;;;10744507;33;20044;-74
2023/07/03 15:08:57;;;;;;;6.82;3.37;;;29.20;76.30;;;;;;10718568;33;20068;-74
2023/07/03 15:14:59;;;;;;;5.82;3.90;;;29.10;76.50;;;;;;10748358;33;20416;-74
2023/07/03 15:21:02;;;;;;;6.12;3.80;;;29.00;76.10;;;;;;10720445;33;20029;-73
2023/07/03 15:27:05;;;;;;;9.55;4.12;;;28.90;76.40;;;;;;10733073;27;20059;-74
2023/07/03 15:33:08;;;;;;;3.62;2.70;;;28.80;76.80;;;;;;10791526;33;20051;-74
2023/07/03 15:39:10;;;;;;;4.30;2.78;;;28.80;76.90;;;;;;10777463;33;20036;-74
2023/07/03 15:45:12;;;;;;;6.50;3.72;;;28.60;77.60;;;;;;10791093;33;20024;-73
2023/07/03 15:51:16;;;;;;;8.60;2.95;;;28.60;77.50;;;;;;10790718;33;20339;-73
2023/07/03 15:57:20;;;;;;;6.55;3.78;;;28.50;77.60;;;;;;10789957;33;20056;-73
2023/07/03 16:03:22;;;;;;;7.05;3.40;;;28.50;77.60;;;;;;10777653;33;20420;-73
2023/07/03 16:09:24;;;;;;;5.43;3.37;;;28.40;78.50;;;;;;10777548;33;20083;-73
2023/07/03 16:15:31;;;;;;;6.72;3.12;;;28.30;79.70;;;;;;10753125;33;20047;-74
2023/07/03 16:21:33;;;;;;;5.27;3.30;;;28.20;80.10;;;;;;10743282;33;20055;-73
2023/07/03 16:27:38;;;;;;;6.28;3.58;;;28.10;80.00;;;;;;10789329;33;20410;-74
2023/07/03 16:33:43;;;;;;;7.40;2.70;;;28.10;80.40;;;;;;10752525;33;20074;-75
2023/07/03 16:39:45;;;;;;;7.93;3.28;;;28.00;80.60;;;;;;10768819;33;20429;-74
2023/07/03 16:45:47;;;;;;;8.55;3.70;;;27.90;80.70;;;;;;10755108;33;20025;-75
2023/07/03 16:51:49;;;;;;;5.95;3.50;;;27.80;80.90;;;;;;10769687;33;20339;-74
2023/07/03 16:57:51;;;;;;;5.95;3.20;;;27.60;81.60;;;;;;10789160;33;20021;-73
2023/07/03 17:03:57;;;;;;;6.22;3.90;;;27.60;81.40;;;;;;10789451;33;20093;-74
2023/07/03 17:09:59;;;;;;;4.62;2.72;;;27.50;80.10;;;;;;10786494;33;20055;-74
2023/07/03 17:16:02;;;;;;;7.40;3.15;;;27.50;80.00;;;;;;10769867;33;20043;-75
2023/07/03 17:22:05;;;;;;;5.62;3.45;;;27.60;80.10;;;;;;10748411;33;20632;-75
2023/07/03 17:28:07;;;;;;;5.15;3.05;;;27.70;79.40;;;;;;10759325;33;20338;-75
2023/07/03 17:34:09;;;;;;;4.25;2.67;;;27.80;79.30;;;;;;10766572;33;20354;-75
2023/07/03 17:40:11;;;;;;;4.82;2.80;;;27.80;78.80;;;;;;10763665;33;20017;-74
2023/07/03 17:46:15;;;;;;;5.05;2.83;;;27.80;78.70;;;;;;10743754;33;20041;-75
2023/07/03 17:52:17;;;;;;;7.07;3.58;;;27.90;78.60;;;;;;10751330;33;20024;-75
2023/07/03 17:58:21;;;;;;;4.22;2.45;;;28.00;78.40;;;;;;10751764;33;20395;-75
2023/07/03 18:04:23;;;;;;;5.50;3.78;;;28.30;78.40;;;;;;10738791;33;20043;-74
2023/07/03 18:10:29;;;;;;;4.25;2.47;;;28.60;77.80;;;;;;10751014;33;20433;-74
2023/07/03 18:16:31;;;;;;;5.70;3.25;;;28.30;77.70;;;;;;10752204;33;20013;-75
2023/07/03 18:22:33;;;;;;;4.28;2.50;;;28.30;78.10;;;;;;10755053;33;20429;-74
2023/07/03 18:28:35;;;;;;;4.18;2.37;;;28.20;78.50;;;;;;10756574;33;20421;-73
2023/07/03 18:34:38;;;;;;;4.75;2.78;;;28.10;78.60;;;;;;10743467;33;20060;-74
2023/07/03 18:40:40;;;;;;;4.30;2.50;;;28.00;79.10;;;;;;10756619;33;20342;-73
2023/07/03 18:46:45;;;;;;;4.30;2.17;;;28.00;79.20;;;;;;10756571;33;20433;-73
2023/07/03 18:52:48;;;;;;;4.82;2.42;;;28.00;79.60;;;;;;10756328;33;20078;-73
2023/07/03 18:58:50;;;;;;;5.07;2.85;;;27.90;80.20;;;;;;10743159;33;20028;-73
2023/07/03 19:04:52;;;;;;;3.40;2.22;;;27.80;80.50;;;;;;10756081;33;20044;-73
2023/07/03 19:10:54;;;;;;;5.57;2.03;;;27.70;80.60;;;;;;10730419;33;20343;-73
2023/07/03 19:16:56;;;;;;;3.90;1.95;;;27.60;80.60;;;;;;10755771;33;20304;-73
2023/07/03 19:22:59;;;;;;;5.82;2.53;;;27.60;80.80;;;;;;10755463;33;20431;-73
2023/07/03 19:29:01;;;;;;;2.83;1.73;;;27.50;80.90;;;;;;10754331;33;20039;-73
2023/07/03 19:35:03;;;;;;;2.72;1.85;;;27.60;81.20;;;;;;10755383;33;20028;-73
2023/07/03 19:41:05;;;;;;;3.12;1.58;;;27.50;81.50;;;;;;10753864;33;20335;-73
2023/07/03 19:47:08;;;;;;;5.22;2.40;;;27.40;81.60;;;;;;10754829;33;20052;-73
2023/07/03 19:53:11;;;;;;;2.65;1.33;;;27.30;81.90;;;;;;10754607;33;20028;-73
2023/07/03 19:59:15;;;;;;;3.60;2.15;;;27.20;82.20;;;;;;10754512;33;20025;-74
2023/07/03 20:05:17;;;;;;;4.03;2.37;;;27.20;82.10;;;;;;10751476;33;20040;-74
2023/07/03 20:11:20;;;;;;;5.30;2.80;;;27.00;82.10;;;;;;10754132;33;20020;-74
2023/07/03 20:17:22;;;;;;;3.35;1.87;;;26.90;82.30;;;;;;10750817;33;20028;-73
2023/07/03 20:23:25;;;;;;;4.93;2.53;;;26.90;82.70;;;;;;10753810;33;20016;-74
2023/07/03 20:29:27;;;;;;;4.25;1.90;;;26.90;82.70;;;;;;10753473;33;20013;-73
2023/07/03 20:35:29;;;;;;;4.12;2.22;;;27.00;82.80;;;;;;10753458;33;20021;-73
2023/07/03 20:41:31;;;;;;;3.28;2.30;;;27.00;82.80;;;;;;10752801;33;20028;-74
2023/07/03 20:47:34;;;;;;;9.95;2.58;;;27.00;82.60;;;;;;10753123;33;20022;-74
2023/07/03 20:53:48;;;;;;;3.25;2.30;;;26.90;82.40;;;;;;10752079;33;20039;-73
2023/07/03 20:59:50;;;;;;;3.78;1.87;;;26.90;82.50;;;;;;10750326;33;20029;-74
2023/07/03 21:05:52;;;;;;;2.72;1.73;;;26.80;82.80;;;;;;10751823;33;20012;-74
2023/07/03 21:11:55;;;;;;;4.05;2.25;;;26.80;83.00;;;;;;10739541;33;20021;-74
2023/07/03 21:17:58;;;;;;;5.55;2.17;;;26.80;83.30;;;;;;10752229;33;20025;-74
2023/07/03 21:24:06;;;;;;;4.28;2.47;;;26.80;83.00;;;;;;10752196;33;20043;-73
2023/07/03 21:30:09;;;;;;;5.57;2.75;;;26.60;83.10;;;;;;10751850;33;20039;-73
2023/07/03 21:36:18;;;;;;;3.55;2.12;;;26.60;83.40;;;;;;10738622;33;20044;-74
2023/07/03 21:42:20;;;;;;;5.97;2.85;;;26.40;83.30;;;;;;10751613;33;20012;-75
2023/07/03 21:48:23;;;;;;;4.95;3.08;;;26.40;83.40;;;;;;10751625;33;20387;-74
2023/07/03 21:54:25;;;;;;;4.37;2.85;;;26.40;83.80;;;;;;10747993;33;20020;-74
2023/07/03 22:00:28;;;;;;;5.43;3.03;;;26.40;83.60;;;;;;10748590;33;20347;-76
2023/07/03 22:06:30;;;;;;;5.60;2.65;;;26.30;82.90;;;;;;10750261;33;20012;-75
2023/07/03 22:12:32;;;;;;;4.53;2.40;;;26.30;82.90;;;;;;10750979;33;20021;-73
2023/07/03 22:18:35;;;;;;;3.50;1.77;;;26.30;83.10;;;;;;10782265;33;20051;-74
2023/07/03 22:24:37;;;;;;;2.42;1.27;;;26.30;82.30;;;;;;10782612;33;20084;-74
2023/07/03 22:30:39;;;;;;;5.43;1.35;;;26.30;81.50;;;;;;10786274;33;20047;-74
2023/07/03 22:36:41;;;;;;;1.20;0.70;;;26.10;81.60;;;;;;10786904;33;20110;-75
2023/07/03 22:42:45;;;;;;;3.70;1.40;;;26.10;81.50;;;;;;10786749;33;20317;-74
2023/07/03 22:48:52;;;;;;;4.47;1.25;;;25.90;81.10;;;;;;10769995;33;20059;-72
2023/07/03 22:54:54;;;;;;;2.78;1.37;;;25.40;80.20;;;;;;10786629;33;20013;-74
2023/07/03 23:00:57;;;;;;;3.60;1.27;;;24.90;81.10;;;;;;10786485;33;20032;-73
2023/07/03 23:06:59;;;;;;;2.95;1.10;;;24.80;81.10;;;;;;10792017;33;20020;-75
2023/07/03 23:13:01;;;;;;;2.03;0.80;;;24.40;80.50;;;;;;10792456;33;20020;-75
2023/07/03 23:19:08;;;;;;;1.62;0.65;;;24.30;81.40;;;;;;10792198;33;20024;-75
2023/07/03 23:25:10;;;;;;;2.53;1.27;;;24.10;79.70;;;;;;10792064;33;20043;-75
2023/07/03 23:31:16;;;;;;;1.33;0.68;;;23.80;80.20;;;;;;10756477;27;20110;-75
2023/07/03 23:37:20;;;;;;;0.90;0.43;;;24.10;81.00;;;;;;10755236;33;20433;-76
2023/07/03 23:43:22;;;;;;;0.82;0.45;;;24.30;80.90;;;;;;10754087;33;20357;-74
2023/07/03 23:49:26;;;;;;;0.30;0.30;;;24.20;81.10;;;;;;10750935;33;20024;-76
2023/07/03 23:55:31;;;;;;;3.22;1.00;;;24.00;81.20;;;;;;10754805;33;20327;-75
